sensor_id;sensor_type;location;lat;lon;timestamp;P1;durP1;ratioP1;P2;durP2;ratioP2
8040;SDS011;4063;48.140;10.250;2022-12-26T00:01:17;6.47;;;5.37;;
8040;SDS011;4063;48.140;10.250;2022-12-26T00:03:43;7.53;;;5.80;;
8040;SDS011;4063;48.140;10.250;2022-12-26T00:06:13;6.30;;;5.70;;
8040;SDS011;4063;48.140;10.250;2022-12-26T00:08:40;8.03;;;6.27;;
8040;SDS011;4063;48.140;10.250;2022-12-26T00:11:06;6.03;;;5.43;;
8040;SDS011;4063;48.140;10.250;2022-12-26T00:13:32;9.90;;;6.57;;
8040;SDS011;4063;48.140;10.250;2022-12-26T00:15:58;6.13;;;5.53;;
8040;SDS011;4063;48.140;10.250;2022-12-26T00:18:24;7.90;;;6.50;;
8040;SDS011;4063;48.140;10.250;2022-12-26T00:20:49;7.13;;;6.43;;
8040;SDS011;4063;48.140;10.250;2022-12-26T00:23:15;8.20;;;6.83;;
8040;SDS011;4063;48.140;10.250;2022-12-26T00:25:41;6.80;;;5.87;;
8040;SDS011;4063;48.140;10.250;2022-12-26T00:28:07;7.80;;;5.80;;
8040;SDS011;4063;48.140;10.250;2022-12-26T00:30:35;6.87;;;5.40;;
8040;SDS011;4063;48.140;10.250;2022-12-26T00:33:02;6.07;;;5.10;;
8040;SDS011;4063;48.140;10.250;2022-12-26T00:35:27;6.40;;;5.80;;
8040;SDS011;4063;48.140;10.250;2022-12-26T00:37:53;6.57;;;5.90;;
8040;SDS011;4063;48.140;10.250;2022-12-26T00:40:19;6.77;;;5.77;;
8040;SDS011;4063;48.140;10.250;2022-12-26T00:42:45;6.67;;;5.47;;
8040;SDS011;4063;48.140;10.250;2022-12-26T00:45:11;5.60;;;5.10;;
8040;SDS011;4063;48.140;10.250;2022-12-26T00:47:37;5.37;;;4.87;;
8040;SDS011;4063;48.140;10.250;2022-12-26T00:50:03;5.63;;;5.13;;
8040;SDS011;4063;48.140;10.250;2022-12-26T00:52:29;5.90;;;5.30;;
8040;SDS011;4063;48.140;10.250;2022-12-26T00:54:55;6.13;;;5.20;;
8040;SDS011;4063;48.140;10.250;2022-12-26T00:57:21;6.50;;;5.80;;
8040;SDS011;4063;48.140;10.250;2022-12-26T00:59:47;5.50;;;5.00;;
8040;SDS011;4063;48.140;10.250;2022-12-26T01:02:13;4.87;;;4.37;;
8040;SDS011;4063;48.140;10.250;2022-12-26T01:04:58;5.37;;;4.53;;
8040;SDS011;4063;48.140;10.250;2022-12-26T01:07:24;5.10;;;4.13;;
8040;SDS011;4063;48.140;10.250;2022-12-26T01:09:50;4.20;;;3.80;;
8040;SDS011;4063;48.140;10.250;2022-12-26T01:12:16;4.67;;;4.23;;
8040;SDS011;4063;48.140;10.250;2022-12-26T01:14:42;4.20;;;3.80;;
8040;SDS011;4063;48.140;10.250;2022-12-26T01:17:08;3.83;;;3.43;;
8040;SDS011;4063;48.140;10.250;2022-12-26T01:19:34;5.30;;;3.53;;
8040;SDS011;4063;48.140;10.250;2022-12-26T01:22:00;5.50;;;3.60;;
8040;SDS011;4063;48.140;10.250;2022-12-26T01:24:26;3.93;;;3.53;;
8040;SDS011;4063;48.140;10.250;2022-12-26T01:26:51;4.60;;;3.27;;
8040;SDS011;4063;48.140;10.250;2022-12-26T01:29:17;3.43;;;3.13;;
8040;SDS011;4063;48.140;10.250;2022-12-26T01:31:43;3.93;;;3.60;;
8040;SDS011;4063;48.140;10.250;2022-12-26T01:34:09;3.73;;;3.40;;
8040;SDS011;4063;48.140;10.250;2022-12-26T01:36:35;3.40;;;2.97;;
8040;SDS011;4063;48.140;10.250;2022-12-26T01:39:01;3.37;;;3.07;;
8040;SDS011;4063;48.140;10.250;2022-12-26T01:41:27;3.30;;;3.00;;
8040;SDS011;4063;48.140;10.250;2022-12-26T01:46:42;3.17;;;2.87;;
8040;SDS011;4063;48.140;10.250;2022-12-26T01:49:07;3.20;;;2.90;;
8040;SDS011;4063;48.140;10.250;2022-12-26T01:51:35;4.00;;;3.07;;
8040;SDS011;4063;48.140;10.250;2022-12-26T01:54:01;3.30;;;3.00;;
8040;SDS011;4063;48.140;10.250;2022-12-26T01:56:29;3.90;;;3.20;;
8040;SDS011;4063;48.140;10.250;2022-12-26T01:58:59;4.33;;;3.03;;
8040;SDS011;4063;48.140;10.250;2022-12-26T02:01:27;3.50;;;3.00;;
8040;SDS011;4063;48.140;10.250;2022-12-26T02:03:54;4.43;;;3.17;;
8040;SDS011;4063;48.140;10.250;2022-12-26T02:06:39;3.17;;;2.90;;
8040;SDS011;4063;48.140;10.250;2022-12-26T02:09:05;3.33;;;3.03;;
8040;SDS011;4063;48.140;10.250;2022-12-26T02:11:36;4.00;;;3.20;;
8040;SDS011;4063;48.140;10.250;2022-12-26T02:14:06;3.50;;;3.13;;
8040;SDS011;4063;48.140;10.250;2022-12-26T02:16:34;3.40;;;3.10;;
8040;SDS011;4063;48.140;10.250;2022-12-26T02:19:00;4.50;;;3.20;;
8040;SDS011;4063;48.140;10.250;2022-12-26T02:31:31;2.50;;;2.30;;
8040;SDS011;4063;48.140;10.250;2022-12-26T02:34:06;3.57;;;2.97;;
8040;SDS011;4063;48.140;10.250;2022-12-26T02:36:39;3.00;;;2.50;;
8040;SDS011;4063;48.140;10.250;2022-12-26T02:45:32;4.47;;;2.43;;
8040;SDS011;4063;48.140;10.250;2022-12-26T02:47:47;2.77;;;2.57;;
8040;SDS011;4063;48.140;10.250;2022-12-26T02:55:51;4.07;;;3.20;;
8040;SDS011;4063;48.140;10.250;2022-12-26T02:58:47;4.57;;;2.83;;
8040;SDS011;4063;48.140;10.250;2022-12-26T03:01:36;3.37;;;2.67;;
8040;SDS011;4063;48.140;10.250;2022-12-26T03:04:23;3.40;;;3.10;;
8040;SDS011;4063;48.140;10.250;2022-12-26T03:07:11;4.00;;;2.77;;
8040;SDS011;4063;48.140;10.250;2022-12-26T03:09:59;6.77;;;3.33;;
8040;SDS011;4063;48.140;10.250;2022-12-26T03:12:52;3.00;;;2.70;;
8040;SDS011;4063;48.140;10.250;2022-12-26T03:15:39;3.20;;;2.90;;
8040;SDS011;4063;48.140;10.250;2022-12-26T03:18:25;2.97;;;2.77;;
8040;SDS011;4063;48.140;10.250;2022-12-26T03:20:53;3.80;;;3.40;;
8040;SDS011;4063;48.140;10.250;2022-12-26T03:23:19;4.53;;;3.70;;
8040;SDS011;4063;48.140;10.250;2022-12-26T03:28:37;3.77;;;3.47;;
8040;SDS011;4063;48.140;10.250;2022-12-26T03:31:04;6.30;;;2.87;;
8040;SDS011;4063;48.140;10.250;2022-12-26T03:33:32;3.33;;;3.03;;
8040;SDS011;4063;48.140;10.250;2022-12-26T03:38:51;3.27;;;2.97;;
8040;SDS011;4063;48.140;10.250;2022-12-26T03:41:30;3.30;;;3.00;;
8040;SDS011;4063;48.140;10.250;2022-12-26T03:44:21;3.57;;;3.27;;
8040;SDS011;4063;48.140;10.250;2022-12-26T03:47:26;3.30;;;3.00;;
8040;SDS011;4063;48.140;10.250;2022-12-26T03:50:21;4.90;;;3.60;;
8040;SDS011;4063;48.140;10.250;2022-12-26T03:53:41;4.87;;;3.70;;
8040;SDS011;4063;48.140;10.250;2022-12-26T03:56:20;4.37;;;3.73;;
8040;SDS011;4063;48.140;10.250;2022-12-26T03:59:08;4.20;;;3.80;;
8040;SDS011;4063;48.140;10.250;2022-12-26T04:01:54;3.70;;;3.40;;
8040;SDS011;4063;48.140;10.250;2022-12-26T04:04:41;4.20;;;3.80;;
8040;SDS011;4063;48.140;10.250;2022-12-26T04:07:31;5.03;;;3.80;;
8040;SDS011;4063;48.140;10.250;2022-12-26T04:10:20;4.70;;;4.13;;
8040;SDS011;4063;48.140;10.250;2022-12-26T04:13:07;4.30;;;3.90;;
8040;SDS011;4063;48.140;10.250;2022-12-26T04:16:00;5.20;;;3.47;;
8040;SDS011;4063;48.140;10.250;2022-12-26T04:19:35;4.30;;;3.40;;
8040;SDS011;4063;48.140;10.250;2022-12-26T04:24:39;4.40;;;4.00;;
8040;SDS011;4063;48.140;10.250;2022-12-26T04:27:26;5.90;;;3.90;;
8040;SDS011;4063;48.140;10.250;2022-12-26T04:30:11;5.00;;;3.83;;
8040;SDS011;4063;48.140;10.250;2022-12-26T04:32:57;4.07;;;3.67;;
8040;SDS011;4063;48.140;10.250;2022-12-26T04:35:48;5.00;;;4.30;;
8040;SDS011;4063;48.140;10.250;2022-12-26T04:38:36;5.97;;;3.90;;
8040;SDS011;4063;48.140;10.250;2022-12-26T04:41:21;6.33;;;4.30;;
8040;SDS011;4063;48.140;10.250;2022-12-26T04:44:06;6.00;;;4.37;;
8040;SDS011;4063;48.140;10.250;2022-12-26T04:46:35;6.07;;;4.57;;
8040;SDS011;4063;48.140;10.250;2022-12-26T04:49:03;5.63;;;4.90;;
8040;SDS011;4063;48.140;10.250;2022-12-26T04:51:48;6.30;;;4.57;;
8040;SDS011;4063;48.140;10.250;2022-12-26T04:54:14;6.00;;;4.83;;
8040;SDS011;4063;48.140;10.250;2022-12-26T04:56:40;6.23;;;5.50;;
8040;SDS011;4063;48.140;10.250;2022-12-26T04:59:06;7.63;;;5.80;;
8040;SDS011;4063;48.140;10.250;2022-12-26T05:01:32;5.93;;;5.33;;
8040;SDS011;4063;48.140;10.250;2022-12-26T05:04:17;7.27;;;5.83;;
8040;SDS011;4063;48.140;10.250;2022-12-26T05:07:02;7.20;;;6.50;;
8040;SDS011;4063;48.140;10.250;2022-12-26T05:09:48;7.13;;;5.50;;
8040;SDS011;4063;48.140;10.250;2022-12-26T05:12:14;6.63;;;5.80;;
8040;SDS011;4063;48.140;10.250;2022-12-26T05:14:40;8.77;;;5.83;;
8040;SDS011;4063;48.140;10.250;2022-12-26T05:17:06;7.27;;;5.90;;
8040;SDS011;4063;48.140;10.250;2022-12-26T05:19:51;7.77;;;5.73;;
8040;SDS011;4063;48.140;10.250;2022-12-26T05:22:37;6.43;;;5.60;;
8040;SDS011;4063;48.140;10.250;2022-12-26T05:25:28;6.90;;;5.90;;
8040;SDS011;4063;48.140;10.250;2022-12-26T05:28:13;9.00;;;6.47;;
8040;SDS011;4063;48.140;10.250;2022-12-26T05:30:59;6.30;;;5.70;;
8040;SDS011;4063;48.140;10.250;2022-12-26T05:33:26;6.63;;;5.47;;
8040;SDS011;4063;48.140;10.250;2022-12-26T05:36:11;6.00;;;5.40;;
8040;SDS011;4063;48.140;10.250;2022-12-26T05:38:37;7.77;;;5.70;;
8040;SDS011;4063;48.140;10.250;2022-12-26T05:41:03;5.97;;;5.20;;
8040;SDS011;4063;48.140;10.250;2022-12-26T05:43:29;5.50;;;4.90;;
8040;SDS011;4063;48.140;10.250;2022-12-26T05:45:55;7.13;;;5.50;;
8040;SDS011;4063;48.140;10.250;2022-12-26T05:48:21;7.43;;;5.10;;
8040;SDS011;4063;48.140;10.250;2022-12-26T05:50:47;5.67;;;4.30;;
8040;SDS011;4063;48.140;10.250;2022-12-26T05:53:13;5.63;;;3.83;;
8040;SDS011;4063;48.140;10.250;2022-12-26T05:55:39;5.10;;;4.60;;
8040;SDS011;4063;48.140;10.250;2022-12-26T05:58:05;7.37;;;4.67;;
8040;SDS011;4063;48.140;10.250;2022-12-26T06:00:31;7.40;;;5.43;;
8040;SDS011;4063;48.140;10.250;2022-12-26T06:02:58;6.40;;;4.60;;
8040;SDS011;4063;48.140;10.250;2022-12-26T06:05:24;4.97;;;4.17;;
8040;SDS011;4063;48.140;10.250;2022-12-26T06:07:50;4.37;;;4.00;;
8040;SDS011;4063;48.140;10.250;2022-12-26T06:10:16;4.53;;;4.13;;
8040;SDS011;4063;48.140;10.250;2022-12-26T06:12:42;5.33;;;4.60;;
8040;SDS011;4063;48.140;10.250;2022-12-26T06:15:08;5.43;;;4.77;;
8040;SDS011;4063;48.140;10.250;2022-12-26T06:17:34;7.03;;;4.50;;
8040;SDS011;4063;48.140;10.250;2022-12-26T06:20:00;6.93;;;5.30;;
8040;SDS011;4063;48.140;10.250;2022-12-26T06:22:29;6.10;;;4.53;;
8040;SDS011;4063;48.140;10.250;2022-12-26T06:24:55;6.20;;;4.77;;
8040;SDS011;4063;48.140;10.250;2022-12-26T06:27:21;9.30;;;4.43;;
8040;SDS011;4063;48.140;10.250;2022-12-26T06:29:47;7.03;;;4.60;;
8040;SDS011;4063;48.140;10.250;2022-12-26T06:32:13;7.97;;;5.23;;
8040;SDS011;4063;48.140;10.250;2022-12-26T06:34:39;4.90;;;4.50;;
8040;SDS011;4063;48.140;10.250;2022-12-26T06:37:05;6.40;;;4.87;;
8040;SDS011;4063;48.140;10.250;2022-12-26T06:39:31;7.10;;;4.77;;
8040;SDS011;4063;48.140;10.250;2022-12-26T06:41:57;6.30;;;4.87;;
8040;SDS011;4063;48.140;10.250;2022-12-26T06:44:23;8.63;;;4.67;;
8040;SDS011;4063;48.140;10.250;2022-12-26T06:46:49;5.27;;;4.60;;
8040;SDS011;4063;48.140;10.250;2022-12-26T06:49:15;5.30;;;4.73;;
8040;SDS011;4063;48.140;10.250;2022-12-26T06:51:41;8.73;;;4.90;;
8040;SDS011;4063;48.140;10.250;2022-12-26T06:54:09;5.37;;;4.80;;
8040;SDS011;4063;48.140;10.250;2022-12-26T06:56:35;5.30;;;4.37;;
8040;SDS011;4063;48.140;10.250;2022-12-26T06:59:02;4.53;;;4.13;;
8040;SDS011;4063;48.140;10.250;2022-12-26T07:01:29;5.10;;;4.57;;
8040;SDS011;4063;48.140;10.250;2022-12-26T07:03:56;6.30;;;4.70;;
8040;SDS011;4063;48.140;10.250;2022-12-26T07:06:26;4.53;;;3.90;;
8040;SDS011;4063;48.140;10.250;2022-12-26T07:08:54;4.60;;;4.10;;
8040;SDS011;4063;48.140;10.250;2022-12-26T07:11:25;6.20;;;4.00;;
8040;SDS011;4063;48.140;10.250;2022-12-26T07:13:52;4.57;;;3.90;;
8040;SDS011;4063;48.140;10.250;2022-12-26T07:16:18;5.60;;;4.30;;
8040;SDS011;4063;48.140;10.250;2022-12-26T07:18:44;3.83;;;3.47;;
8040;SDS011;4063;48.140;10.250;2022-12-26T07:21:11;4.33;;;3.93;;
8040;SDS011;4063;48.140;10.250;2022-12-26T07:23:38;6.23;;;3.97;;
8040;SDS011;4063;48.140;10.250;2022-12-26T07:26:04;5.43;;;4.07;;
8040;SDS011;4063;48.140;10.250;2022-12-26T07:28:30;4.87;;;4.30;;
8040;SDS011;4063;48.140;10.250;2022-12-26T07:30:56;4.33;;;3.87;;
8040;SDS011;4063;48.140;10.250;2022-12-26T07:33:24;5.37;;;3.57;;
8040;SDS011;4063;48.140;10.250;2022-12-26T07:35:50;4.50;;;4.00;;
8040;SDS011;4063;48.140;10.250;2022-12-26T07:38:16;5.50;;;3.80;;
8040;SDS011;4063;48.140;10.250;2022-12-26T07:40:42;4.50;;;3.80;;
8040;SDS011;4063;48.140;10.250;2022-12-26T07:43:08;5.20;;;3.90;;
8040;SDS011;4063;48.140;10.250;2022-12-26T07:45:33;4.23;;;3.70;;
8040;SDS011;4063;48.140;10.250;2022-12-26T07:47:59;5.77;;;3.60;;
8040;SDS011;4063;48.140;10.250;2022-12-26T07:50:25;4.93;;;3.60;;
8040;SDS011;4063;48.140;10.250;2022-12-26T07:52:52;4.50;;;3.63;;
8040;SDS011;4063;48.140;10.250;2022-12-26T07:55:18;4.80;;;4.30;;
8040;SDS011;4063;48.140;10.250;2022-12-26T07:57:48;5.63;;;3.70;;
8040;SDS011;4063;48.140;10.250;2022-12-26T08:00:14;3.87;;;3.47;;
8040;SDS011;4063;48.140;10.250;2022-12-26T08:02:40;3.90;;;3.50;;
8040;SDS011;4063;48.140;10.250;2022-12-26T08:05:06;3.90;;;3.50;;
8040;SDS011;4063;48.140;10.250;2022-12-26T08:07:32;4.03;;;3.60;;
8040;SDS011;4063;48.140;10.250;2022-12-26T08:09:58;5.13;;;3.80;;
8040;SDS011;4063;48.140;10.250;2022-12-26T08:12:24;4.20;;;3.53;;
8040;SDS011;4063;48.140;10.250;2022-12-26T08:14:51;3.40;;;3.10;;
8040;SDS011;4063;48.140;10.250;2022-12-26T08:17:17;4.90;;;4.00;;
8040;SDS011;4063;48.140;10.250;2022-12-26T08:19:43;6.57;;;3.33;;
8040;SDS011;4063;48.140;10.250;2022-12-26T08:22:09;5.07;;;3.23;;
8040;SDS011;4063;48.140;10.250;2022-12-26T08:24:34;5.70;;;3.33;;
8040;SDS011;4063;48.140;10.250;2022-12-26T08:27:00;3.90;;;3.50;;
8040;SDS011;4063;48.140;10.250;2022-12-26T08:29:26;5.70;;;3.40;;
8040;SDS011;4063;48.140;10.250;2022-12-26T08:31:52;5.40;;;3.50;;
8040;SDS011;4063;48.140;10.250;2022-12-26T08:34:18;5.70;;;5.13;;
8040;SDS011;4063;48.140;10.250;2022-12-26T08:36:44;3.97;;;3.57;;
8040;SDS011;4063;48.140;10.250;2022-12-26T08:39:10;5.33;;;3.83;;
8040;SDS011;4063;48.140;10.250;2022-12-26T08:41:37;3.57;;;3.20;;
8040;SDS011;4063;48.140;10.250;2022-12-26T08:44:03;3.67;;;3.27;;
8040;SDS011;4063;48.140;10.250;2022-12-26T08:46:29;4.70;;;3.13;;
8040;SDS011;4063;48.140;10.250;2022-12-26T08:48:54;4.30;;;3.20;;
8040;SDS011;4063;48.140;10.250;2022-12-26T08:51:22;4.73;;;3.23;;
8040;SDS011;4063;48.140;10.250;2022-12-26T08:53:49;4.50;;;2.87;;
8040;SDS011;4063;48.140;10.250;2022-12-26T08:56:16;7.80;;;4.07;;
8040;SDS011;4063;48.140;10.250;2022-12-26T08:58:42;3.63;;;2.60;;
8040;SDS011;4063;48.140;10.250;2022-12-26T09:01:12;3.20;;;2.57;;
8040;SDS011;4063;48.140;10.250;2022-12-26T09:03:39;3.53;;;2.80;;
8040;SDS011;4063;48.140;10.250;2022-12-26T09:06:05;3.97;;;2.67;;
8040;SDS011;4063;48.140;10.250;2022-12-26T09:08:31;3.30;;;2.50;;
8040;SDS011;4063;48.140;10.250;2022-12-26T09:11:01;3.27;;;2.70;;
8040;SDS011;4063;48.140;10.250;2022-12-26T09:13:27;2.97;;;2.67;;
8040;SDS011;4063;48.140;10.250;2022-12-26T09:15:53;4.20;;;3.13;;
8040;SDS011;4063;48.140;10.250;2022-12-26T09:18:19;2.73;;;2.13;;
8040;SDS011;4063;48.140;10.250;2022-12-26T09:20:45;2.93;;;2.60;;
8040;SDS011;4063;48.140;10.250;2022-12-26T09:23:11;2.57;;;2.37;;
8040;SDS011;4063;48.140;10.250;2022-12-26T09:25:39;3.97;;;2.50;;
8040;SDS011;4063;48.140;10.250;2022-12-26T09:28:05;3.37;;;2.80;;
8040;SDS011;4063;48.140;10.250;2022-12-26T09:30:31;3.07;;;2.10;;
8040;SDS011;4063;48.140;10.250;2022-12-26T09:32:57;2.53;;;2.27;;
8040;SDS011;4063;48.140;10.250;2022-12-26T09:35:23;2.50;;;2.10;;
8040;SDS011;4063;48.140;10.250;2022-12-26T09:37:49;4.03;;;2.50;;
8040;SDS011;4063;48.140;10.250;2022-12-26T09:40:19;3.10;;;2.33;;
8040;SDS011;4063;48.140;10.250;2022-12-26T09:42:55;4.13;;;2.20;;
8040;SDS011;4063;48.140;10.250;2022-12-26T09:45:26;2.70;;;2.13;;
8040;SDS011;4063;48.140;10.250;2022-12-26T09:48:09;2.50;;;2.30;;
8040;SDS011;4063;48.140;10.250;2022-12-26T09:50:38;2.60;;;2.40;;
8040;SDS011;4063;48.140;10.250;2022-12-26T09:53:13;4.10;;;2.67;;
8040;SDS011;4063;48.140;10.250;2022-12-26T09:58:14;3.80;;;2.53;;
8040;SDS011;4063;48.140;10.250;2022-12-26T10:01:06;6.20;;;3.33;;
8040;SDS011;4063;48.140;10.250;2022-12-26T10:03:29;3.73;;;2.60;;
8040;SDS011;4063;48.140;10.250;2022-12-26T10:08:42;3.73;;;3.00;;
8040;SDS011;4063;48.140;10.250;2022-12-26T10:11:17;4.90;;;2.83;;
8040;SDS011;4063;48.140;10.250;2022-12-26T10:14:08;3.60;;;2.60;;
8040;SDS011;4063;48.140;10.250;2022-12-26T10:21:45;4.73;;;3.97;;
8040;SDS011;4063;48.140;10.250;2022-12-26T10:24:17;3.73;;;2.80;;
8040;SDS011;4063;48.140;10.250;2022-12-26T10:26:48;3.10;;;2.70;;
8040;SDS011;4063;48.140;10.250;2022-12-26T10:29:18;5.23;;;3.70;;
8040;SDS011;4063;48.140;10.250;2022-12-26T10:31:55;5.87;;;3.50;;
8040;SDS011;4063;48.140;10.250;2022-12-26T10:34:42;3.27;;;2.97;;
8040;SDS011;4063;48.140;10.250;2022-12-26T10:45:16;6.03;;;3.20;;
8040;SDS011;4063;48.140;10.250;2022-12-26T10:47:43;5.00;;;4.50;;
8040;SDS011;4063;48.140;10.250;2022-12-26T10:50:16;4.63;;;3.07;;
8040;SDS011;4063;48.140;10.250;2022-12-26T10:52:43;7.57;;;4.57;;
8040;SDS011;4063;48.140;10.250;2022-12-26T10:55:12;3.97;;;3.23;;
8040;SDS011;4063;48.140;10.250;2022-12-26T10:57:39;6.47;;;3.83;;
8040;SDS011;4063;48.140;10.250;2022-12-26T11:00:27;5.70;;;3.43;;
8040;SDS011;4063;48.140;10.250;2022-12-26T11:03:04;6.70;;;3.80;;
8040;SDS011;4063;48.140;10.250;2022-12-26T11:05:30;6.60;;;4.03;;
8040;SDS011;4063;48.140;10.250;2022-12-26T11:08:04;7.23;;;4.40;;
8040;SDS011;4063;48.140;10.250;2022-12-26T11:10:31;7.17;;;3.70;;
8040;SDS011;4063;48.140;10.250;2022-12-26T11:13:00;5.40;;;3.70;;
8040;SDS011;4063;48.140;10.250;2022-12-26T11:15:47;8.17;;;4.53;;
8040;SDS011;4063;48.140;10.250;2022-12-26T11:18:19;7.87;;;4.47;;
8040;SDS011;4063;48.140;10.250;2022-12-26T11:20:45;7.00;;;4.23;;
8040;SDS011;4063;48.140;10.250;2022-12-26T11:23:22;5.90;;;3.87;;
8040;SDS011;4063;48.140;10.250;2022-12-26T11:25:52;5.87;;;4.13;;
8040;SDS011;4063;48.140;10.250;2022-12-26T11:28:29;8.00;;;6.23;;
8040;SDS011;4063;48.140;10.250;2022-12-26T11:30:56;7.90;;;6.00;;
8040;SDS011;4063;48.140;10.250;2022-12-26T11:38:23;8.87;;;5.70;;
8040;SDS011;4063;48.140;10.250;2022-12-26T11:41:04;10.07;;;5.97;;
8040;SDS011;4063;48.140;10.250;2022-12-26T11:43:51;6.37;;;5.00;;
8040;SDS011;4063;48.140;10.250;2022-12-26T11:46:17;6.57;;;5.40;;
8040;SDS011;4063;48.140;10.250;2022-12-26T11:48:49;7.67;;;5.23;;
8040;SDS011;4063;48.140;10.250;2022-12-26T11:51:16;7.70;;;5.40;;
8040;SDS011;4063;48.140;10.250;2022-12-26T11:56:39;7.70;;;5.27;;
8040;SDS011;4063;48.140;10.250;2022-12-26T11:59:13;7.83;;;5.83;;
8040;SDS011;4063;48.140;10.250;2022-12-26T12:01:40;12.07;;;5.87;;
8040;SDS011;4063;48.140;10.250;2022-12-26T12:04:06;7.33;;;6.13;;
8040;SDS011;4063;48.140;10.250;2022-12-26T12:06:39;8.23;;;5.73;;
8040;SDS011;4063;48.140;10.250;2022-12-26T12:09:13;6.63;;;5.93;;
8040;SDS011;4063;48.140;10.250;2022-12-26T12:14:30;6.47;;;5.83;;
8040;SDS011;4063;48.140;10.250;2022-12-26T12:17:00;7.23;;;6.40;;
8040;SDS011;4063;48.140;10.250;2022-12-26T12:19:45;7.97;;;6.30;;
8040;SDS011;4063;48.140;10.250;2022-12-26T12:22:23;9.27;;;7.10;;
8040;SDS011;4063;48.140;10.250;2022-12-26T12:32:54;9.20;;;6.83;;
8040;SDS011;4063;48.140;10.250;2022-12-26T12:48:30;9.40;;;8.30;;
8040;SDS011;4063;48.140;10.250;2022-12-26T12:51:04;14.07;;;8.77;;
8040;SDS011;4063;48.140;10.250;2022-12-26T13:01:34;10.67;;;9.20;;
8040;SDS011;4063;48.140;10.250;2022-12-26T13:06:50;12.27;;;8.43;;
8040;SDS011;4063;48.140;10.250;2022-12-26T13:09:21;10.93;;;8.07;;
8040;SDS011;4063;48.140;10.250;2022-12-26T13:12:23;9.50;;;8.37;;
8040;SDS011;4063;48.140;10.250;2022-12-26T13:14:42;14.37;;;9.10;;
8040;SDS011;4063;48.140;10.250;2022-12-26T13:17:10;12.87;;;11.50;;
8040;SDS011;4063;48.140;10.250;2022-12-26T13:19:42;14.90;;;11.33;;
8040;SDS011;4063;48.140;10.250;2022-12-26T13:22:13;14.63;;;11.33;;
8040;SDS011;4063;48.140;10.250;2022-12-26T13:24:44;13.40;;;10.53;;
8040;SDS011;4063;48.140;10.250;2022-12-26T13:27:20;15.03;;;13.40;;
8040;SDS011;4063;48.140;10.250;2022-12-26T13:29:49;15.97;;;10.90;;
8040;SDS011;4063;48.140;10.250;2022-12-26T13:32:23;20.53;;;11.17;;
8040;SDS011;4063;48.140;10.250;2022-12-26T13:34:50;13.77;;;10.97;;
8040;SDS011;4063;48.140;10.250;2022-12-26T13:40:02;11.80;;;9.30;;
8040;SDS011;4063;48.140;10.250;2022-12-26T13:42:32;21.60;;;16.73;;
8040;SDS011;4063;48.140;10.250;2022-12-26T13:48:02;13.07;;;11.67;;
8040;SDS011;4063;48.140;10.250;2022-12-26T13:55:52;13.23;;;9.57;;
8040;SDS011;4063;48.140;10.250;2022-12-26T14:00:44;12.90;;;8.63;;
8040;SDS011;4063;48.140;10.250;2022-12-26T14:22:51;8.70;;;6.57;;
8040;SDS011;4063;48.140;10.250;2022-12-26T14:27:25;8.30;;;6.80;;
8040;SDS011;4063;48.140;10.250;2022-12-26T14:29:58;6.80;;;5.80;;
8040;SDS011;4063;48.140;10.250;2022-12-26T14:35:14;7.17;;;6.07;;
8040;SDS011;4063;48.140;10.250;2022-12-26T14:37:55;8.97;;;6.33;;
8040;SDS011;4063;48.140;10.250;2022-12-26T14:40:34;6.30;;;5.57;;
8040;SDS011;4063;48.140;10.250;2022-12-26T14:50:43;7.33;;;5.50;;
8040;SDS011;4063;48.140;10.250;2022-12-26T14:55:52;8.63;;;7.77;;
8040;SDS011;4063;48.140;10.250;2022-12-26T15:03:48;6.00;;;5.10;;
8040;SDS011;4063;48.140;10.250;2022-12-26T15:13:55;6.90;;;5.90;;
8040;SDS011;4063;48.140;10.250;2022-12-26T15:19:12;5.33;;;4.53;;
8040;SDS011;4063;48.140;10.250;2022-12-26T15:29:14;4.57;;;4.07;;
8040;SDS011;4063;48.140;10.250;2022-12-26T15:31:50;5.90;;;4.47;;
8040;SDS011;4063;48.140;10.250;2022-12-26T15:36:46;4.77;;;3.70;;
8040;SDS011;4063;48.140;10.250;2022-12-26T15:39:17;8.90;;;3.47;;
8040;SDS011;4063;48.140;10.250;2022-12-26T15:41:46;6.53;;;4.93;;
8040;SDS011;4063;48.140;10.250;2022-12-26T15:44:15;5.10;;;4.40;;
8040;SDS011;4063;48.140;10.250;2022-12-26T15:46:50;2.60;;;2.40;;
8040;SDS011;4063;48.140;10.250;2022-12-26T15:49:21;8.80;;;6.77;;
8040;SDS011;4063;48.140;10.250;2022-12-26T16:00:14;4.43;;;4.03;;
8040;SDS011;4063;48.140;10.250;2022-12-26T16:02:48;3.30;;;3.00;;
8040;SDS011;4063;48.140;10.250;2022-12-26T16:05:25;2.30;;;2.10;;
8040;SDS011;4063;48.140;10.250;2022-12-26T16:12:56;5.33;;;4.83;;
8040;SDS011;4063;48.140;10.250;2022-12-26T16:15:22;4.97;;;4.33;;
8040;SDS011;4063;48.140;10.250;2022-12-26T16:17:49;4.00;;;3.70;;
8040;SDS011;4063;48.140;10.250;2022-12-26T16:20:19;3.90;;;2.90;;
8040;SDS011;4063;48.140;10.250;2022-12-26T16:23:06;3.10;;;2.80;;
8040;SDS011;4063;48.140;10.250;2022-12-26T16:25:36;3.00;;;2.70;;
8040;SDS011;4063;48.140;10.250;2022-12-26T16:28:02;4.10;;;3.70;;
8040;SDS011;4063;48.140;10.250;2022-12-26T16:30:33;3.40;;;3.10;;
8040;SDS011;4063;48.140;10.250;2022-12-26T16:33:01;4.93;;;4.47;;
8040;SDS011;4063;48.140;10.250;2022-12-26T16:35:30;7.63;;;4.93;;
8040;SDS011;4063;48.140;10.250;2022-12-26T16:37:57;7.27;;;4.00;;
8040;SDS011;4063;48.140;10.250;2022-12-26T16:40:26;4.47;;;3.27;;
8040;SDS011;4063;48.140;10.250;2022-12-26T16:43:00;4.50;;;4.10;;
8040;SDS011;4063;48.140;10.250;2022-12-26T16:45:27;3.10;;;2.80;;
8040;SDS011;4063;48.140;10.250;2022-12-26T16:47:53;3.50;;;3.20;;
8040;SDS011;4063;48.140;10.250;2022-12-26T16:50:24;3.77;;;2.73;;
8040;SDS011;4063;48.140;10.250;2022-12-26T16:58:29;3.17;;;2.87;;
8040;SDS011;4063;48.140;10.250;2022-12-26T17:01:08;4.10;;;3.50;;
8040;SDS011;4063;48.140;10.250;2022-12-26T17:03:48;2.80;;;2.30;;
8040;SDS011;4063;48.140;10.250;2022-12-26T17:06:37;2.43;;;2.23;;
8040;SDS011;4063;48.140;10.250;2022-12-26T17:09:09;3.23;;;2.57;;
8040;SDS011;4063;48.140;10.250;2022-12-26T17:11:37;2.60;;;2.40;;
8040;SDS011;4063;48.140;10.250;2022-12-26T17:14:05;2.83;;;2.53;;
8040;SDS011;4063;48.140;10.250;2022-12-26T17:16:32;7.30;;;5.47;;
8040;SDS011;4063;48.140;10.250;2022-12-26T17:19:18;7.17;;;4.90;;
8040;SDS011;4063;48.140;10.250;2022-12-26T17:24:29;3.43;;;2.77;;
8040;SDS011;4063;48.140;10.250;2022-12-26T17:29:55;2.57;;;2.37;;
8040;SDS011;4063;48.140;10.250;2022-12-26T17:34:49;5.17;;;4.23;;
8040;SDS011;4063;48.140;10.250;2022-12-26T17:37:17;12.77;;;10.60;;
8040;SDS011;4063;48.140;10.250;2022-12-26T17:39:49;6.20;;;4.27;;
8040;SDS011;4063;48.140;10.250;2022-12-26T17:42:15;4.73;;;4.23;;
8040;SDS011;4063;48.140;10.250;2022-12-26T17:44:42;7.27;;;6.57;;
8040;SDS011;4063;48.140;10.250;2022-12-26T17:47:24;11.43;;;9.97;;
8040;SDS011;4063;48.140;10.250;2022-12-26T17:49:52;3.57;;;2.90;;
8040;SDS011;4063;48.140;10.250;2022-12-26T17:52:20;3.43;;;2.70;;
8040;SDS011;4063;48.140;10.250;2022-12-26T17:54:47;3.77;;;3.37;;
8040;SDS011;4063;48.140;10.250;2022-12-26T17:57:31;3.97;;;2.70;;
8040;SDS011;4063;48.140;10.250;2022-12-26T17:59:57;2.37;;;2.17;;
8040;SDS011;4063;48.140;10.250;2022-12-26T18:02:25;2.53;;;2.33;;
8040;SDS011;4063;48.140;10.250;2022-12-26T18:04:51;4.43;;;3.03;;
8040;SDS011;4063;48.140;10.250;2022-12-26T18:07:21;2.87;;;2.67;;
8040;SDS011;4063;48.140;10.250;2022-12-26T18:09:51;5.47;;;2.30;;
8040;SDS011;4063;48.140;10.250;2022-12-26T18:12:17;4.43;;;3.03;;
8040;SDS011;4063;48.140;10.250;2022-12-26T18:14:43;3.27;;;2.20;;
8040;SDS011;4063;48.140;10.250;2022-12-26T18:17:10;5.80;;;4.17;;
8040;SDS011;4063;48.140;10.250;2022-12-26T18:19:38;3.83;;;3.53;;
8040;SDS011;4063;48.140;10.250;2022-12-26T18:22:10;3.50;;;3.20;;
8040;SDS011;4063;48.140;10.250;2022-12-26T18:24:36;5.20;;;3.40;;
8040;SDS011;4063;48.140;10.250;2022-12-26T18:27:02;3.93;;;3.53;;
8040;SDS011;4063;48.140;10.250;2022-12-26T18:29:28;2.60;;;2.40;;
8040;SDS011;4063;48.140;10.250;2022-12-26T18:31:54;5.67;;;5.10;;
8040;SDS011;4063;48.140;10.250;2022-12-26T18:34:20;3.73;;;3.43;;
8040;SDS011;4063;48.140;10.250;2022-12-26T18:36:46;4.20;;;3.90;;
8040;SDS011;4063;48.140;10.250;2022-12-26T18:39:12;2.93;;;2.63;;